Time;durP1;ratioP1;P1;durP2;ratioP2;P2;SDS_P1;SDS_P2;PMS_P1;PMS_P2;Temp;Humidity;BMP_temperature;BMP_pressure;BME280_temperature;BME280_humidity;BME280_pressure;Samples;Min_cycle;Max_cycle;Signal;HPM_P1;HPM_P2
2022/03/21 00:00:47;;;;;;;11.80;7.88;;;6.30;70.60;;;;;;5112519;28;20157;-71
2022/03/21 00:03:52;;;;;;;17.23;10.02;;;6.50;70.70;;;;;;5112555;28;20058;-71
2022/03/21 00:06:58;;;;;;;14.43;10.18;;;6.30;72.30;;;;;;5112046;28;20484;-70
2022/03/21 00:10:04;;;;;;;14.48;8.63;;;6.00;73.00;;;;;;5100035;28;20046;-70
2022/03/21 00:13:10;;;;;;;15.65;8.82;;;5.80;74.20;;;;;;5112294;28;20059;-71
2022/03/21 00:16:16;;;;;;;13.90;8.82;;;5.70;75.10;;;;;;5112129;28;20053;-70
2022/03/21 00:19:21;;;;;;;12.43;8.23;;;5.50;75.50;;;;;;5111685;28;20046;-71
2022/03/21 00:22:25;;;;;;;15.30;9.50;;;5.40;76.10;;;;;;5112322;28;20576;-70
2022/03/21 00:25:29;;;;;;;18.73;9.30;;;5.30;77.30;;;;;;5112417;28;20066;-70
2022/03/21 00:28:33;;;;;;;19.40;9.05;;;5.30;78.00;;;;;;5099839;28;20493;-70
2022/03/21 00:31:38;;;;;;;16.35;10.70;;;5.20;78.80;;;;;;5111559;28;20058;-70
2022/03/21 00:34:43;;;;;;;14.15;9.88;;;5.20;79.60;;;;;;5111938;28;20058;-70
2022/03/21 00:37:48;;;;;;;20.40;10.27;;;5.20;80.00;;;;;;5111155;28;20390;-70
2022/03/21 00:40:52;;;;;;;25.00;10.60;;;5.20;80.70;;;;;;5111615;28;20051;-70
2022/03/21 00:43:57;;;;;;;15.00;10.20;;;5.20;81.10;;;;;;5111799;28;20058;-71
2022/03/21 00:47:01;;;;;;;15.35;10.15;;;5.20;82.10;;;;;;5111023;28;20043;-71
2022/03/21 00:50:07;;;;;;;17.40;9.70;;;5.10;82.80;;;;;;5111710;28;20051;-71
2022/03/21 00:53:11;;;;;;;11.95;8.25;;;5.10;80.30;;;;;;5112423;28;20031;-69
2022/03/21 00:56:15;;;;;;;12.68;7.38;;;5.60;76.50;;;;;;5111981;28;20482;-68
2022/03/21 00:59:20;;;;;;;13.20;7.57;;;6.10;74.50;;;;;;5111531;28;20050;-69
2022/03/21 01:02:24;;;;;;;13.32;7.07;;;6.40;73.10;;;;;;5111934;28;20390;-70
2022/03/21 01:05:29;;;;;;;14.32;8.10;;;6.70;72.60;;;;;;5111566;28;20051;-69
2022/03/21 01:08:33;;;;;;;13.82;7.88;;;6.70;72.70;;;;;;5111310;28;20050;-69
2022/03/21 01:11:38;;;;;;;12.88;8.00;;;6.70;72.30;;;;;;5111039;28;20062;-70
2022/03/21 01:14:42;;;;;;;13.63;9.18;;;6.70;72.30;;;;;;5111604;28;20039;-70
2022/03/21 01:17:47;;;;;;;15.48;9.40;;;6.50;77.10;;;;;;5110395;28;20047;-71
2022/03/21 01:20:51;;;;;;;14.57;7.95;;;6.30;79.20;;;;;;5111421;28;20038;-71
2022/03/21 01:23:56;;;;;;;15.63;8.20;;;6.30;73.60;;;;;;5111812;28;20058;-71
2022/03/21 01:27:00;;;;;;;14.30;9.13;;;6.30;76.20;;;;;;5111033;28;20382;-70
2022/03/21 01:30:06;;;;;;;18.75;9.88;;;6.10;79.80;;;;;;5111180;28;20058;-71
2022/03/21 01:33:10;;;;;;;14.43;8.90;;;6.00;80.60;;;;;;5110922;28;20414;-71
2022/03/21 01:36:14;;;;;;;15.82;9.40;;;5.90;82.20;;;;;;5110324;28;20042;-71
2022/03/21 01:39:19;;;;;;;14.80;9.00;;;5.80;82.40;;;;;;5111903;28;20394;-63
2022/03/21 01:42:23;;;;;;;16.05;9.05;;;5.80;81.20;;;;;;5109864;28;20050;-64
2022/03/21 01:45:28;;;;;;;15.88;9.77;;;5.70;83.00;;;;;;5110828;28;20489;-64
2022/03/21 01:48:32;;;;;;;16.00;9.52;;;5.60;84.80;;;;;;5111096;28;20383;-63
2022/03/21 01:51:38;;;;;;;16.30;8.95;;;5.50;84.40;;;;;;5111256;28;20389;-64
2022/03/21 01:58:20;;;;;;;26.02;12.30;;;5.40;87.10;;;;;;5080504;28;20046;-64
2022/03/21 02:01:24;;;;;;;18.23;10.15;;;5.30;88.90;;;;;;5112794;28;20039;-65
2022/03/21 02:04:28;;;;;;;16.77;9.27;;;5.20;87.80;;;;;;5115141;28;20051;-64
2022/03/21 02:07:34;;;;;;;17.20;10.45;;;5.10;87.40;;;;;;5114355;28;20043;-64
2022/03/21 02:10:42;;;;;;;19.13;10.50;;;5.00;89.90;;;;;;5113865;28;20054;-64
2022/03/21 02:13:47;;;;;;;17.17;10.25;;;4.90;90.60;;;;;;5113522;28;20051;-64
2022/03/21 02:16:51;;;;;;;18.55;10.02;;;4.80;90.70;;;;;;5114287;28;20046;-65
2022/03/21 02:20:01;;;;;;;13.30;8.18;;;4.70;90.60;;;;;;5114089;28;20043;-64
2022/03/21 02:23:25;;;;;;;16.55;8.85;;;4.60;88.60;;;;;;5114358;28;20059;-64
2022/03/21 02:26:31;;;;;;;18.30;10.50;;;4.70;88.60;;;;;;5113811;28;20052;-64
2022/03/21 02:29:37;;;;;;;16.80;10.40;;;4.50;90.10;;;;;;5113779;28;20046;-65
2022/03/21 02:32:42;;;;;;;18.95;9.80;;;4.50;90.70;;;;;;5113918;28;20042;-64
2022/03/21 02:35:48;;;;;;;16.83;10.43;;;4.40;91.40;;;;;;5112059;28;20386;-64
2022/03/21 02:38:54;;;;;;;19.00;8.93;;;4.40;91.90;;;;;;5113830;28;20038;-64
2022/03/21 02:41:58;;;;;;;15.13;9.25;;;4.40;91.50;;;;;;5114221;28;20039;-64
2022/03/21 02:45:04;;;;;;;15.85;9.82;;;4.30;92.40;;;;;;5114337;28;20059;-64
2022/03/21 02:48:13;;;;;;;18.35;9.45;;;4.30;92.90;;;;;;5113909;28;20051;-64
2022/03/21 02:51:22;;;;;;;17.23;9.95;;;4.30;92.70;;;;;;5114203;28;20050;-64
2022/03/21 02:54:28;;;;;;;20.33;9.60;;;4.20;93.00;;;;;;5113914;28;20051;-64
2022/03/21 02:57:32;;;;;;;18.65;9.43;;;4.10;93.20;;;;;;5113715;28;20039;-64
2022/03/21 03:00:37;;;;;;;20.98;10.52;;;4.10;93.60;;;;;;5113060;28;20050;-65
2022/03/21 03:03:43;;;;;;;15.93;10.07;;;4.00;93.80;;;;;;5113802;28;20342;-64
2022/03/21 03:06:47;;;;;;;19.38;10.70;;;3.90;93.90;;;;;;5113196;28;20042;-64
2022/03/21 03:09:52;;;;;;;14.95;9.02;;;3.90;93.90;;;;;;5113637;28;20042;-64
2022/03/21 03:12:57;;;;;;;13.40;7.53;;;3.90;92.20;;;;;;5113540;28;20057;-64
2022/03/21 03:16:01;;;;;;;13.50;6.57;;;4.00;86.40;;;;;;5113485;28;20042;-63
2022/03/21 03:19:05;;;;;;;16.80;7.80;;;4.30;81.70;;;;;;5113874;28;20042;-70
2022/03/21 03:22:09;;;;;;;11.63;6.72;;;4.60;79.60;;;;;;5113445;28;20050;-70
2022/03/21 03:25:13;;;;;;;11.40;6.45;;;4.80;78.70;;;;;;5113581;28;20485;-70
2022/03/21 03:28:21;;;;;;;16.38;6.60;;;5.00;77.60;;;;;;5113574;28;20042;-69
2022/03/21 03:31:27;;;;;;;13.40;6.53;;;5.10;77.30;;;;;;5114688;28;20059;-70
2022/03/21 03:34:33;;;;;;;12.65;6.85;;;5.20;76.80;;;;;;5113244;28;20055;-70
2022/03/21 03:37:37;;;;;;;13.07;7.03;;;5.20;76.70;;;;;;5113085;28;20042;-69
2022/03/21 03:40:43;;;;;;;12.82;6.93;;;5.30;75.80;;;;;;5113599;28;20493;-70
2022/03/21 03:43:47;;;;;;;13.02;7.28;;;5.40;75.30;;;;;;5112941;28;20067;-70
2022/03/21 03:46:52;;;;;;;12.63;6.65;;;5.50;75.40;;;;;;5112742;28;20908;-70
2022/03/21 03:49:59;;;;;;;14.68;6.95;;;5.60;75.00;;;;;;5113334;28;20043;-70
2022/03/21 03:53:03;;;;;;;13.95;7.45;;;5.70;73.90;;;;;;5112922;28;20046;-71
2022/03/21 03:56:08;;;;;;;11.82;6.13;;;5.90;73.50;;;;;;5112274;28;20394;-70
2022/03/21 03:59:11;;;;;;;15.25;7.38;;;6.00;72.80;;;;;;5112447;28;20121;-71
2022/03/21 04:02:15;;;;;;;13.65;6.65;;;6.10;72.40;;;;;;5113020;28;20070;-70
2022/03/21 04:05:21;;;;;;;12.95;6.45;;;6.20;71.80;;;;;;5111112;28;20047;-70
2022/03/21 04:08:25;;;;;;;12.43;6.45;;;6.10;71.90;;;;;;5112125;28;20046;-70
2022/03/21 04:11:29;;;;;;;10.20;6.30;;;6.10;71.80;;;;;;5111875;28;20035;-70
2022/03/21 04:14:33;;;;;;;11.30;7.03;;;6.00;72.20;;;;;;5112811;28;20513;-70
2022/03/21 04:17:37;;;;;;;10.25;6.68;;;5.80;72.30;;;;;;5111707;28;20054;-71
2022/03/21 04:20:42;;;;;;;11.80;6.97;;;5.80;72.40;;;;;;5111867;28;20501;-71
2022/03/21 04:23:46;;;;;;;12.93;7.10;;;5.80;72.80;;;;;;5111190;28;20391;-70
2022/03/21 04:26:50;;;;;;;13.25;6.43;;;5.70;73.30;;;;;;5111504;28;20043;-71
2022/03/21 04:29:55;;;;;;;12.13;7.10;;;5.70;72.90;;;;;;5111593;28;20508;-71
2022/03/21 04:33:01;;;;;;;12.20;7.15;;;5.60;73.40;;;;;;5111563;28;20047;-71
2022/03/21 04:36:05;;;;;;;12.25;6.88;;;5.60;73.10;;;;;;5111533;28;20489;-71
2022/03/21 04:39:09;;;;;;;13.13;6.88;;;5.60;72.40;;;;;;5111749;28;20114;-71
2022/03/21 04:42:14;;;;;;;12.63;6.88;;;5.60;73.00;;;;;;5111452;28;20113;-71
2022/03/21 04:45:20;;;;;;;10.18;6.72;;;5.50;73.80;;;;;;5111523;28;20051;-71
2022/03/21 04:48:23;;;;;;;16.17;9.40;;;5.30;75.80;;;;;;5110839;28;20043;-71
2022/03/21 04:51:27;;;;;;;17.70;8.50;;;5.00;82.50;;;;;;5111362;28;20039;-71
2022/03/21 04:54:31;;;;;;;13.98;7.32;;;4.80;81.60;;;;;;5111411;28;20047;-71
2022/03/21 04:57:36;;;;;;;20.63;8.23;;;4.80;77.10;;;;;;5111134;28;20042;-71
2022/03/21 05:00:44;;;;;;;14.48;7.40;;;4.80;77.00;;;;;;5111216;28;20043;-70
2022/03/21 05:03:48;;;;;;;10.77;6.47;;;4.80;77.80;;;;;;5112498;28;20050;-70
2022/03/21 05:06:54;;;;;;;12.63;7.28;;;4.80;76.70;;;;;;5112993;28;20493;-70
2022/03/21 05:09:58;;;;;;;12.57;7.38;;;4.80;78.00;;;;;;5111833;28;20485;-70
2022/03/21 05:13:03;;;;;;;17.55;8.32;;;4.70;78.70;;;;;;5111044;28;20409;-70
2022/03/21 05:16:08;;;;;;;13.25;6.82;;;4.70;78.50;;;;;;5111861;28;20046;-70
2022/03/21 05:19:13;;;;;;;13.20;6.80;;;4.80;78.20;;;;;;5112878;28;20051;-69
2022/03/21 05:22:17;;;;;;;11.95;6.63;;;5.00;76.50;;;;;;5111834;28;20043;-63
2022/03/21 05:32:07;;;;;;;12.85;6.25;;;5.50;75.00;;;;;;5111096;28;20039;-70
2022/03/21 05:38:34;;;;;;;11.90;6.45;;;5.60;73.40;;;;;;5110786;28;20048;-70
2022/03/21 05:41:38;;;;;;;14.60;7.00;;;5.60;74.90;;;;;;5110715;28;20042;-70
2022/03/21 05:44:42;;;;;;;12.98;6.80;;;5.60;75.00;;;;;;5110836;28;20050;-71
2022/03/21 05:51:13;;;;;;;15.57;6.75;;;5.50;77.10;;;;;;5110370;28;20088;-71
2022/03/21 05:54:18;;;;;;;17.90;8.10;;;5.40;76.50;;;;;;5110232;28;20390;-71
2022/03/21 05:57:23;;;;;;;12.68;7.30;;;5.60;76.70;;;;;;5109912;28;20492;-71
2022/03/21 06:00:27;;;;;;;16.88;8.10;;;5.40;76.20;;;;;;5110503;28;20054;-71
2022/03/21 06:03:31;;;;;;;13.60;8.88;;;5.60;77.70;;;;;;5110303;28;20047;-71
2022/03/21 06:06:36;;;;;;;12.43;8.02;;;6.40;79.30;;;;;;5109827;28;20048;-71
2022/03/21 06:09:40;;;;;;;15.30;8.65;;;7.70;77.30;;;;;;5110365;28;20054;-71
2022/03/21 06:12:45;;;;;;;18.92;9.82;;;8.10;75.80;;;;;;5110199;28;20050;-71
2022/03/21 06:15:49;;;;;;;10.77;7.55;;;8.80;75.30;;;;;;5110258;28;20489;-71
2022/03/21 06:18:53;;;;;;;19.92;9.32;;;10.60;73.90;;;;;;5110642;28;20046;-71
2022/03/21 06:21:58;;;;;;;15.57;8.35;;;11.00;71.90;;;;;;5109382;28;20398;-71
2022/03/21 06:25:03;;;;;;;15.05;8.40;;;11.80;70.20;;;;;;5110085;28;20393;-72
2022/03/21 06:28:08;;;;;;;16.02;8.35;;;13.60;68.50;;;;;;5109798;28;20405;-72
2022/03/21 06:31:13;;;;;;;20.73;9.18;;;13.10;66.80;;;;;;5109752;28;20051;-71
2022/03/21 06:34:18;;;;;;;17.05;8.88;;;12.90;68.30;;;;;;5110156;28;20493;-72
2022/03/21 06:37:22;;;;;;;12.43;8.25;;;13.80;68.90;;;;;;5109710;28;20042;-71
2022/03/21 06:40:27;;;;;;;12.88;7.45;;;14.90;65.70;;;;;;5110028;28;20034;-71
2022/03/21 06:43:31;;;;;;;18.05;8.25;;;15.30;65.00;;;;;;5109866;28;20059;-72
2022/03/21 06:46:35;;;;;;;13.73;7.65;;;15.20;63.60;;;;;;5110533;28;20390;-71
2022/03/21 06:49:39;;;;;;;13.38;7.38;;;15.00;64.80;;;;;;5113065;28;20051;-71
2022/03/21 06:52:44;;;;;;;11.63;7.20;;;14.70;63.10;;;;;;5113842;28;20480;-72
2022/03/21 06:55:48;;;;;;;15.07;8.10;;;15.00;62.90;;;;;;5113684;28;20034;-71
2022/03/21 06:58:53;;;;;;;12.55;7.63;;;15.20;62.10;;;;;;5112908;28;20058;-71
2022/03/21 07:01:57;;;;;;;11.73;7.85;;;15.90;61.10;;;;;;5112910;28;20046;-71
2022/03/21 07:05:02;;;;;;;13.68;6.90;;;16.30;61.00;;;;;;5112554;28;20043;-71
2022/03/21 07:08:06;;;;;;;13.30;7.53;;;17.50;60.00;;;;;;5111529;28;20031;-72
2022/03/21 07:11:12;;;;;;;11.02;6.80;;;17.90;58.70;;;;;;5106662;28;20524;-72
2022/03/21 07:14:16;;;;;;;11.43;6.88;;;17.40;58.50;;;;;;5109709;28;20038;-71
2022/03/21 07:17:22;;;;;;;15.77;7.57;;;17.80;58.80;;;;;;5112402;28;20046;-71
2022/03/21 07:20:27;;;;;;;11.98;6.82;;;17.30;59.40;;;;;;5112349;28;20038;-71
2022/03/21 07:23:34;;;;;;;10.43;7.18;;;17.50;61.00;;;;;;5112743;28;20405;-72
2022/03/21 07:26:38;;;;;;;12.85;6.88;;;18.10;58.90;;;;;;5109783;28;20409;-72
2022/03/21 07:29:43;;;;;;;11.45;6.40;;;18.20;58.80;;;;;;5111854;28;20039;-72
2022/03/21 07:32:48;;;;;;;10.45;6.47;;;17.90;58.50;;;;;;5109650;28;20043;-71
2022/03/21 07:35:52;;;;;;;12.50;7.32;;;18.80;57.10;;;;;;5104023;28;20035;-72
2022/03/21 07:38:57;;;;;;;15.18;6.85;;;18.80;56.80;;;;;;5109570;28;20050;-72
2022/03/21 07:42:02;;;;;;;14.10;6.32;;;18.00;57.00;;;;;;5109622;28;20038;-72
2022/03/21 07:48:31;;;;;;;11.15;6.47;;;18.20;56.80;;;;;;5107318;28;20051;-72
2022/03/21 07:51:35;;;;;;;9.07;6.10;;;18.80;56.70;;;;;;5108200;28;20051;-70
2022/03/21 07:54:40;;;;;;;10.43;5.88;;;18.40;55.10;;;;;;5107604;28;20054;-70
2022/03/21 07:57:46;;;;;;;8.55;6.30;;;19.90;55.40;;;;;;5106651;28;20042;-70
2022/03/21 08:00:51;;;;;;;12.00;5.85;;;20.90;54.00;;;;;;5102443;28;20048;-70
2022/03/21 08:04:00;;;;;;;10.07;5.82;;;22.30;53.90;;;;;;5100487;28;20064;-70
2022/03/21 08:07:05;;;;;;;9.75;5.82;;;24.70;52.10;;;;;;5102707;28;20042;-70
2022/03/21 08:10:10;;;;;;;8.70;5.90;;;26.30;49.80;;;;;;5109722;28;20548;-70
2022/03/21 08:13:19;;;;;;;10.93;5.88;;;25.50;48.00;;;;;;5102437;28;20394;-71
2022/03/21 08:16:23;;;;;;;10.25;5.70;;;25.10;49.00;;;;;;5095249;28;20377;-70
2022/03/21 08:19:28;;;;;;;11.65;6.13;;;25.90;48.80;;;;;;5111522;28;20485;-72
2022/03/21 08:22:31;;;;;;;7.70;5.60;;;24.70;49.00;;;;;;5104406;28;20482;-72
2022/03/21 08:25:37;;;;;;;7.78;5.78;;;23.80;48.50;;;;;;5107118;28;20047;-72
2022/03/21 08:28:41;;;;;;;11.88;5.40;;;23.70;50.40;;;;;;5103481;28;20398;-73
2022/03/21 08:31:45;;;;;;;8.80;5.63;;;24.90;48.30;;;;;;5107116;28;20509;-72
2022/03/21 08:34:49;;;;;;;8.02;5.32;;;24.40;49.00;;;;;;5106649;28;20065;-72
2022/03/21 08:37:53;;;;;;;7.53;5.15;;;24.60;48.30;;;;;;5103728;28;20062;-73
2022/03/21 08:40:58;;;;;;;10.57;5.60;;;23.40;48.50;;;;;;5102586;28;20518;-73
2022/03/21 08:44:02;;;;;;;9.68;6.00;;;23.00;49.90;;;;;;5110649;28;20051;-72
2022/03/21 08:47:07;;;;;;;8.02;6.47;;;22.70;49.90;;;;;;5110124;28;20047;-73
2022/03/21 08:50:12;;;;;;;9.25;6.00;;;20.20;52.80;;;;;;5108278;28;20050;-72
2022/03/21 08:53:17;;;;;;;7.28;5.93;;;19.50;52.00;;;;;;5108303;28;20489;-73
2022/03/21 08:56:22;;;;;;;9.50;5.72;;;20.40;53.30;;;;;;5107122;28;20398;-70
2022/03/21 08:59:26;;;;;;;12.02;6.00;;;23.30;51.20;;;;;;5108721;28;20051;-72
2022/03/21 09:02:30;;;;;;;9.50;5.05;;;22.50;49.10;;;;;;5107756;28;20477;-69
2022/03/21 09:05:35;;;;;;;14.07;5.93;;;23.50;50.40;;;;;;5103337;28;20042;-72
2022/03/21 09:08:42;;;;;;;10.10;6.10;;;25.10;50.10;;;;;;5105139;28;20045;-70
2022/03/21 09:11:47;;;;;;;8.20;5.13;;;21.70;50.80;;;;;;5107851;28;20039;-69
2022/03/21 09:14:52;;;;;;;5.97;4.40;;;23.90;49.20;;;;;;5102123;28;20042;-70
2022/03/21 09:17:57;;;;;;;10.20;5.38;;;25.60;47.50;;;;;;5105741;28;20035;-70
2022/03/21 09:21:02;;;;;;;7.72;5.03;;;26.60;46.80;;;;;;5109766;28;20046;-70
2022/03/21 09:24:07;;;;;;;9.38;5.00;;;27.30;46.20;;;;;;5109532;28;20169;-70
2022/03/21 09:27:11;;;;;;;9.00;4.70;;;27.70;45.20;;;;;;5089798;28;20039;-70
2022/03/21 09:30:16;;;;;;;6.28;4.90;;;28.40;45.30;;;;;;5105214;28;20051;-70
2022/03/21 09:33:46;;;;;;;6.63;4.53;;;29.00;44.50;;;;;;5102395;28;20047;-70
2022/03/21 09:36:51;;;;;;;10.70;4.85;;;30.10;43.50;;;;;;5100868;28;20394;-64
2022/03/21 09:39:56;;;;;;;10.63;4.97;;;30.20;43.30;;;;;;5106344;28;20042;-64
2022/03/21 09:43:01;;;;;;;8.70;4.72;;;30.30;43.00;;;;;;5107014;28;20370;-64
2022/03/21 09:46:08;;;;;;;10.25;5.03;;;30.00;42.40;;;;;;5103884;28;20043;-70
2022/03/21 09:49:16;;;;;;;13.57;4.72;;;30.80;42.30;;;;;;5107652;28;20055;-70
2022/03/21 09:52:21;;;;;;;10.13;5.15;;;31.70;42.30;;;;;;5102971;28;20046;-70
2022/03/21 09:55:26;;;;;;;8.20;4.63;;;32.30;41.80;;;;;;5103240;28;20038;-70
2022/03/21 09:58:31;;;;;;;6.30;4.07;;;33.00;41.40;;;;;;5104495;28;20051;-69
2022/03/21 10:01:36;;;;;;;9.02;4.35;;;33.60;40.90;;;;;;5103425;28;20071;-64
2022/03/21 10:04:49;;;;;;;6.53;3.85;;;33.90;39.40;;;;;;5101228;28;20055;-64
2022/03/21 10:08:14;;;;;;;8.20;4.20;;;35.30;40.40;;;;;;5094861;28;20059;-70
2022/03/21 10:11:22;;;;;;;8.30;4.22;;;35.70;38.70;;;;;;5106246;28;20038;-64
2022/03/21 10:14:34;;;;;;;6.40;4.07;;;34.90;38.70;;;;;;5102138;28;20079;-65
2022/03/21 10:17:38;;;;;;;8.48;4.45;;;35.30;38.90;;;;;;5099540;28;20055;-70
2022/03/21 10:20:43;;;;;;;9.50;5.05;;;34.10;38.70;;;;;;5105959;28;20043;-71
2022/03/21 10:24:15;;;;;;;7.65;4.65;;;32.30;38.80;;;;;;5101895;28;20122;-70
2022/03/21 10:27:37;;;;;;;8.85;5.15;;;32.10;39.10;;;;;;5102220;28;20043;-64
2022/03/21 10:30:44;;;;;;;7.55;3.97;;;32.50;37.20;;;;;;5108290;28;20027;-64
2022/03/21 10:34:03;;;;;;;6.35;4.18;;;33.10;38.60;;;;;;5107301;28;20055;-64
2022/03/21 10:37:10;;;;;;;6.93;4.28;;;33.20;38.10;;;;;;5101980;28;20046;-64
2022/03/21 10:40:18;;;;;;;8.02;4.22;;;33.30;38.20;;;;;;5108854;28;20046;-66
2022/03/21 10:43:25;;;;;;;9.00;4.38;;;33.10;37.40;;;;;;5109828;28;20050;-66
2022/03/21 10:46:31;;;;;;;9.88;4.60;;;32.20;38.70;;;;;;5098865;28;20065;-64
2022/03/21 10:49:43;;;;;;;9.68;3.92;;;33.20;38.00;;;;;;5108423;28;20031;-66
2022/03/21 10:53:12;;;;;;;10.70;3.97;;;34.30;37.30;;;;;;5097444;28;20034;-65
2022/03/21 10:56:16;;;;;;;6.85;3.53;;;33.30;37.80;;;;;;5101240;28;20038;-63
2022/03/21 10:59:21;;;;;;;5.15;4.15;;;32.80;38.50;;;;;;5111273;28;20484;-65
2022/03/21 11:02:26;;;;;;;4.70;3.83;;;32.90;38.20;;;;;;5109882;28;20035;-67
2022/03/21 11:05:38;;;;;;;8.65;4.60;;;32.50;38.10;;;;;;5120031;27;20047;-74
2022/03/21 11:08:47;;;;;;;5.82;4.55;;;31.50;36.90;;;;;;5103173;28;20054;-73
2022/03/21 11:11:51;;;;;;;7.80;4.60;;;30.80;38.10;;;;;;5102592;28;20074;-74
2022/03/21 11:14:58;;;;;;;6.10;4.10;;;32.50;37.00;;;;;;5105397;28;20042;-66
2022/03/21 11:18:04;;;;;;;4.93;4.30;;;33.90;37.10;;;;;;5103140;28;20042;-65
2022/03/21 11:21:11;;;;;;;7.82;4.47;;;34.60;36.70;;;;;;5109613;28;20043;-64
2022/03/21 11:24:17;;;;;;;7.68;4.70;;;35.00;37.10;;;;;;5104358;28;20038;-67
2022/03/21 11:27:32;;;;;;;7.53;4.38;;;34.80;36.90;;;;;;5108982;28;20034;-73
2022/03/21 11:31:01;;;;;;;8.45;4.10;;;34.70;37.00;;;;;;5099987;28;20047;-64
2022/03/21 11:34:40;;;;;;;7.22;3.97;;;35.50;36.30;;;;;;5092458;28;20039;-64
2022/03/21 11:37:44;;;;;;;5.05;3.90;;;36.50;35.90;;;;;;5109354;28;20496;-64
2022/03/21 11:40:48;;;;;;;9.70;4.38;;;36.40;36.00;;;;;;5113123;28;20541;-66
2022/03/21 11:44:14;;;;;;;7.65;3.70;;;35.40;35.60;;;;;;5112855;28;20042;-64
2022/03/21 11:47:28;;;;;;;7.30;4.55;;;33.30;37.30;;;;;;5109518;28;20046;-73
2022/03/21 11:50:33;;;;;;;9.55;4.82;;;32.00;37.30;;;;;;5113201;28;20050;-66
2022/03/21 11:53:53;;;;;;;8.70;5.07;;;31.40;36.70;;;;;;5111517;28;20041;-63
2022/03/21 11:56:58;;;;;;;6.88;5.18;;;28.60;37.70;;;;;;5108567;28;20050;-75
2022/03/21 12:00:13;;;;;;;19.80;5.82;;;22.60;40.40;;;;;;5108509;28;20653;-63
2022/03/21 12:03:26;;;;;;;9.48;4.95;;;19.10;45.50;;;;;;5108451;28;20038;-72
2022/03/21 12:06:32;;;;;;;13.52;5.85;;;20.20;45.30;;;;;;5104220;28;20501;-72
2022/03/21 12:09:44;;;;;;;9.93;5.15;;;20.30;45.80;;;;;;5105241;28;20055;-74
2022/03/21 12:12:49;;;;;;;7.85;5.15;;;21.50;44.30;;;;;;5105970;28;20276;-74
2022/03/21 12:15:54;;;;;;;7.30;4.63;;;24.30;42.70;;;;;;5107125;28;20039;-74
2022/03/21 12:19:03;;;;;;;6.85;4.53;;;26.10;42.00;;;;;;5106797;28;20043;-73
2022/03/21 12:22:30;;;;;;;7.80;5.32;;;28.50;40.50;;;;;;5105987;28;20043;-74
2022/03/21 12:25:36;;;;;;;6.93;4.82;;;26.30;39.20;;;;;;5098049;28;20063;-73
2022/03/21 12:32:24;;;;;;;7.15;5.40;;;27.10;40.10;;;;;;5107985;28;20030;-73
2022/03/21 12:35:32;;;;;;;7.65;5.72;;;27.40;40.10;;;;;;5108026;28;20046;-74
2022/03/21 12:38:37;;;;;;;7.72;5.38;;;27.80;40.20;;;;;;5107083;28;20058;-73
2022/03/21 12:41:45;;;;;;;10.30;5.50;;;28.70;40.20;;;;;;5098727;28;20446;-74
2022/03/21 12:44:50;;;;;;;7.47;5.47;;;28.30;39.10;;;;;;5102813;28;20557;-73
2022/03/21 12:48:08;;;;;;;7.68;5.57;;;27.80;39.40;;;;;;5106045;28;20038;-72
2022/03/21 12:51:22;;;;;;;7.50;5.38;;;27.90;39.50;;;;;;5098415;28;20039;-73
2022/03/21 12:54:27;;;;;;;7.93;5.60;;;28.40;39.10;;;;;;5112206;28;20413;-75
2022/03/21 12:57:32;;;;;;;6.45;5.40;;;28.40;39.80;;;;;;5107950;28;20536;-66
2022/03/21 13:00:39;;;;;;;7.47;4.93;;;28.60;39.40;;;;;;5110761;28;20042;-65
2022/03/21 13:03:44;;;;;;;7.68;5.15;;;28.50;39.40;;;;;;5111467;28;20406;-66
2022/03/21 13:10:33;;;;;;;9.93;5.65;;;27.90;39.00;;;;;;5111114;28;20038;-65
2022/03/21 13:13:42;;;;;;;7.05;5.22;;;28.00;39.40;;;;;;5109232;28;20037;-65
2022/03/21 13:17:01;;;;;;;7.68;5.30;;;27.40;39.40;;;;;;5110187;28;20042;-65
2022/03/21 13:20:08;;;;;;;6.85;5.25;;;26.80;39.20;;;;;;5110523;28;20040;-64
2022/03/21 13:23:20;;;;;;;12.93;5.38;;;26.70;39.40;;;;;;5102567;28;20046;-65
2022/03/21 13:26:28;;;;;;;9.90;6.38;;;27.00;40.10;;;;;;5109918;28;20046;-64
2022/03/21 13:29:48;;;;;;;12.60;5.50;;;26.80;39.50;;;;;;5108985;28;20058;-65
2022/03/21 13:32:54;;;;;;;9.27;5.95;;;26.20;39.90;;;;;;5110062;28;20031;-66
2022/03/21 13:36:19;;;;;;;6.93;5.75;;;26.10;40.50;;;;;;5109823;28;20477;-64
2022/03/21 13:39:32;;;;;;;11.55;5.93;;;26.30;39.60;;;;;;5108423;28;20043;-65
2022/03/21 13:42:40;;;;;;;10.73;5.90;;;26.20;40.40;;;;;;5109917;28;20058;-65
2022/03/21 13:45:46;;;;;;;8.43;5.95;;;26.10;39.90;;;;;;5111123;28;20347;-65
2022/03/21 13:48:51;;;;;;;8.23;6.07;;;25.90;39.70;;;;;;5111252;28;20045;-65
2022/03/21 13:51:56;;;;;;;10.07;6.30;;;25.30;40.90;;;;;;5101820;28;20394;-65
2022/03/21 13:55:03;;;;;;;9.50;6.63;;;25.40;41.10;;;;;;5098280;28;20153;-66
2022/03/21 13:58:28;;;;;;;10.02;6.15;;;25.50;40.20;;;;;;5106109;28;20054;-66
2022/03/21 14:01:44;;;;;;;11.38;6.68;;;25.50;40.30;;;;;;5106767;28;20054;-66
2022/03/21 14:04:53;;;;;;;9.30;6.07;;;26.00;40.70;;;;;;5090033;28;20035;-66
2022/03/21 14:08:20;;;;;;;13.52;7.35;;;26.10;40.50;;;;;;5101503;28;20501;-65
2022/03/21 14:11:33;;;;;;;8.27;5.57;;;25.80;40.50;;;;;;5107359;28;20489;-65
2022/03/21 14:14:38;;;;;;;8.45;6.18;;;25.80;39.90;;;;;;5093918;28;20047;-65
2022/03/21 14:17:45;;;;;;;7.90;5.95;;;25.10;40.80;;;;;;5103228;28;20047;-65
2022/03/21 14:20:53;;;;;;;9.27;6.93;;;25.20;40.50;;;;;;5091229;28;20055;-66
2022/03/21 14:23:58;;;;;;;10.80;6.32;;;24.80;40.20;;;;;;5102443;28;20050;-65
2022/03/21 14:27:05;;;;;;;17.15;9.88;;;24.70;40.70;;;;;;5109095;28;20055;-65
2022/03/21 14:30:10;;;;;;;12.38;7.25;;;24.50;40.10;;;;;;5109695;28;20054;-66
2022/03/21 14:33:16;;;;;;;9.38;6.28;;;24.20;41.00;;;;;;5109838;28;20038;-66
2022/03/21 14:36:23;;;;;;;9.48;6.32;;;24.60;40.80;;;;;;5108606;28;20121;-64
2022/03/21 14:39:28;;;;;;;10.48;6.53;;;23.90;41.00;;;;;;5088652;28;20039;-65
2022/03/21 14:42:35;;;;;;;8.25;6.45;;;23.40;41.70;;;;;;5106352;28;20058;-65
2022/03/21 14:45:40;;;;;;;14.80;9.05;;;23.60;41.70;;;;;;5089462;28;20043;-64
2022/03/21 14:48:49;;;;;;;21.65;10.65;;;22.90;41.50;;;;;;5105686;28;20038;-65
2022/03/21 14:51:54;;;;;;;9.38;7.10;;;22.80;41.90;;;;;;5108611;28;20043;-65
2022/03/21 14:55:00;;;;;;;15.00;8.82;;;22.80;41.80;;;;;;5109892;28;20382;-65
2022/03/21 14:58:08;;;;;;;15.90;13.10;;;22.30;41.80;;;;;;5108764;28;20382;-64
2022/03/21 15:01:15;;;;;;;10.13;6.90;;;21.80;42.10;;;;;;5108370;28;20046;-65
2022/03/21 15:04:19;;;;;;;13.68;7.10;;;21.40;42.60;;;;;;5109034;28;20055;-65
2022/03/21 15:07:25;;;;;;;11.85;7.95;;;20.80;43.70;;;;;;5103610;28;20513;-64
2022/03/21 15:10:30;;;;;;;21.65;12.98;;;20.10;44.40;;;;;;5111195;28;20035;-63
2022/03/21 15:13:34;;;;;;;29.67;20.25;;;19.50;45.20;;;;;;5107438;28;20043;-65
2022/03/21 15:16:40;;;;;;;17.38;9.55;;;19.60;45.70;;;;;;5113212;28;20055;-67
2022/03/21 15:19:44;;;;;;;17.45;11.27;;;19.10;45.70;;;;;;5101894;28;20047;-63
2022/03/21 15:22:49;;;;;;;11.88;7.60;;;18.60;45.60;;;;;;5103429;28;20050;-66
2022/03/21 15:25:54;;;;;;;13.35;7.95;;;18.20;46.00;;;;;;5110072;28;20066;-65
2022/03/21 15:29:00;;;;;;;18.77;11.20;;;18.00;46.40;;;;;;5097114;28;20059;-63
2022/03/21 15:32:05;;;;;;;19.17;12.10;;;17.90;46.60;;;;;;5092782;28;20047;-65
2022/03/21 15:35:10;;;;;;;13.45;8.80;;;17.60;46.50;;;;;;5102328;28;20047;-66
2022/03/21 15:41:39;;;;;;;16.73;9.40;;;16.70;47.10;;;;;;5109555;28;20386;-65
2022/03/21 15:44:44;;;;;;;17.05;9.65;;;16.60;46.90;;;;;;5113371;28;20046;-66
2022/03/21 15:47:49;;;;;;;20.13;10.93;;;16.40;47.10;;;;;;5112473;28;20051;-65
2022/03/21 15:50:54;;;;;;;16.25;9.43;;;16.10;47.20;;;;;;5112040;28;20043;-65
2022/03/21 15:53:58;;;;;;;17.35;9.75;;;15.90;47.10;;;;;;5113293;28;20042;-66
2022/03/21 15:57:04;;;;;;;13.48;9.20;;;15.70;47.00;;;;;;5112407;28;20042;-67
2022/03/21 16:00:16;;;;;;;18.20;9.73;;;15.50;47.40;;;;;;5112823;28;20050;-66
2022/03/21 16:03:22;;;;;;;26.52;13.32;;;15.40;47.40;;;;;;5113393;28;20387;-65
2022/03/21 16:06:26;;;;;;;28.60;11.02;;;15.20;48.30;;;;;;5111986;28;20062;-65
2022/03/21 16:09:30;;;;;;;11.75;8.00;;;15.00;48.00;;;;;;5112530;28;20039;-66
2022/03/21 16:12:35;;;;;;;17.23;10.63;;;14.70;48.60;;;;;;5112596;28;20039;-65
2022/03/21 16:15:41;;;;;;;12.95;8.25;;;14.40;48.70;;;;;;5112463;28;20413;-65
2022/03/21 16:18:46;;;;;;;16.00;9.23;;;14.30;48.50;;;;;;5112274;28;20524;-65
2022/03/21 16:21:50;;;;;;;20.40;12.07;;;14.10;48.90;;;;;;5112515;28;20055;-65
2022/03/21 16:24:55;;;;;;;16.25;9.18;;;14.00;49.00;;;;;;5111087;28;20046;-65
2022/03/21 16:28:00;;;;;;;21.52;9.38;;;13.90;48.90;;;;;;5111328;28;20508;-65
2022/03/21 16:31:04;;;;;;;16.02;10.43;;;13.70;49.50;;;;;;5111125;28;20043;-65
2022/03/21 16:34:09;;;;;;;16.85;10.90;;;13.50;48.70;;;;;;5111999;28;20067;-65
2022/03/21 16:37:15;;;;;;;14.45;9.23;;;13.50;48.80;;;;;;5112317;28;20051;-66